Time;durP1;ratioP1;P1;durP2;ratioP2;P2;SDS_P1;SDS_P2;PMS_P1;PMS_P2;Temp;Humidity;BMP_temperature;BMP_pressure;BME280_temperature;BME280_humidity;BME280_pressure;Samples;Min_cycle;Max_cycle;Signal;HPM_P1;HPM_P2
2022/10/15 00:00:30;;;;;;;0.50;0.50;;;;;;;10.97;90.02;99551.97;5125896;28;20023;-71
2022/10/15 00:02:56;;;;;;;0.40;0.40;;;;;;;11.00;89.83;99548.44;5126070;28;20195;-72
2022/10/15 00:05:22;;;;;;;0.55;0.55;;;;;;;11.04;89.83;99544.84;5126020;28;20034;-72
2022/10/15 00:07:47;;;;;;;0.40;0.40;;;;;;;11.01;89.83;99547.53;5125261;28;20020;-71
2022/10/15 00:10:14;;;;;;;0.40;0.40;;;;;;;11.01;89.87;99542.34;5125599;28;20020;-72
2022/10/15 00:12:40;;;;;;;0.43;0.43;;;;;;;11.01;89.73;99539.75;5125963;28;20027;-71
2022/10/15 00:15:06;;;;;;;0.60;0.60;;;;;;;11.00;89.86;99540.63;5125867;28;20024;-71
2022/10/15 00:17:33;;;;;;;0.40;0.40;;;;;;;10.99;89.85;99537.19;5125319;28;20474;-71
2022/10/15 00:19:58;;;;;;;0.40;0.40;;;;;;;11.01;89.57;99529.34;5125629;28;20031;-71
2022/10/15 00:22:24;;;;;;;0.40;0.40;;;;;;;11.14;89.20;99528.16;5125803;28;20055;-71
2022/10/15 00:24:49;;;;;;;0.40;0.40;;;;;;;11.09;89.37;99530.00;5125669;28;20024;-71
2022/10/15 00:27:15;;;;;;;1.98;1.88;;;;;;;11.11;89.04;99522.19;5125701;28;20027;-71
2022/10/15 00:29:40;;;;;;;0.40;0.40;;;;;;;11.09;89.41;99524.81;5125681;28;20435;-71
2022/10/15 00:32:05;;;;;;;0.60;0.60;;;;;;;11.03;89.25;99514.59;5125089;28;20026;-71
2022/10/15 00:34:31;;;;;;;0.40;0.40;;;;;;;11.00;89.43;99505.13;5107272;28;20087;-71
2022/10/15 00:36:56;;;;;;;0.52;0.52;;;;;;;11.09;89.22;99511.84;5125147;28;20031;-71
2022/10/15 00:39:21;;;;;;;1.00;0.95;;;;;;;11.15;88.88;99510.81;5125087;28;20044;-71
2022/10/15 00:41:47;;;;;;;0.40;0.40;;;;;;;11.11;89.20;99502.28;5125023;28;20016;-71
2022/10/15 00:44:24;;;;;;;1.65;1.30;;;;;;;11.09;89.11;99509.25;5125467;28;20028;-71
2022/10/15 00:47:02;;;;;;;0.73;0.73;;;;;;;11.11;89.20;99497.06;5125161;28;20034;-72
2022/10/15 00:49:33;;;;;;;1.48;1.38;;;;;;;11.08;89.26;99493.69;5141269;28;20020;-72
2022/10/15 00:52:06;;;;;;;0.40;0.40;;;;;;;11.07;89.52;99498.03;5125450;28;20020;-72
2022/10/15 00:54:36;;;;;;;0.52;0.52;;;;;;;11.10;89.67;99494.50;5125498;28;20062;-71
2022/10/15 00:57:04;;;;;;;1.70;1.65;;;;;;;11.17;89.30;99495.22;5125377;28;20123;-71
2022/10/15 00:59:31;;;;;;;0.70;0.70;;;;;;;11.21;89.17;99489.03;5127352;28;20042;-71
2022/10/15 01:01:59;;;;;;;0.40;0.40;;;;;;;11.22;89.15;99483.81;5128956;28;20467;-71
2022/10/15 01:04:26;;;;;;;0.65;0.65;;;;;;;11.24;88.97;99478.56;5129054;28;20083;-71
2022/10/15 01:06:51;;;;;;;1.40;1.30;;;;;;;11.24;89.11;99475.97;5128861;28;20054;-71
2022/10/15 01:09:17;;;;;;;0.40;0.40;;;;;;;11.28;89.06;99475.84;5128876;28;20016;-72
2022/10/15 01:11:49;;;;;;;0.50;0.50;;;;;;;11.36;88.77;99474.78;5128564;28;20016;-72
2022/10/15 01:14:49;;;;;;;0.95;0.95;;;;;;;11.43;88.55;99475.47;5128925;28;20051;-72
2022/10/15 01:17:21;;;;;;;1.15;1.15;;;;;;;11.40;88.60;99471.22;5124408;28;20035;-72
2022/10/15 01:20:04;;;;;;;0.32;0.32;;;;;;;11.44;88.79;99461.59;5128828;28;20019;-72
2022/10/15 01:23:01;;;;;;;0.40;0.40;;;;;;;11.50;88.30;99457.06;5110288;28;20031;-72
2022/10/15 01:25:51;;;;;;;0.50;0.50;;;;;;;11.54;87.64;99450.03;5128400;28;20094;-71
2022/10/15 01:28:52;;;;;;;1.77;1.67;;;;;;;11.48;87.81;99443.28;5128703;28;20540;-71
2022/10/15 01:31:24;;;;;;;0.57;0.57;;;;;;;11.47;87.79;99441.56;5128548;28;20020;-72
2022/10/15 01:34:07;;;;;;;0.45;0.45;;;;;;;11.51;87.67;99431.94;5128378;28;20391;-72
2022/10/15 01:36:45;;;;;;;2.15;2.05;;;;;;;11.54;87.56;99431.84;5144176;27;20027;-71
2022/10/15 01:39:32;;;;;;;5.88;1.27;;;;;;;11.56;87.28;99432.66;5127838;28;20050;-71
2022/10/15 01:42:12;;;;;;;5.40;1.85;;;;;;;11.52;87.52;99420.63;5127965;28;20044;-71
2022/10/15 01:44:46;;;;;;;0.40;0.40;;;;;;;11.56;87.31;99431.81;5128304;28;20024;-72
2022/10/15 01:47:31;;;;;;;3.22;2.67;;;;;;;11.55;87.22;99433.53;5127868;28;20098;-72
2022/10/15 01:50:00;;;;;;;0.50;0.50;;;;;;;11.48;87.39;99417.28;5128064;28;20023;-72
2022/10/15 01:52:31;;;;;;;0.50;0.50;;;;;;;11.50;87.18;99412.03;5128140;28;20031;-72
2022/10/15 01:54:58;;;;;;;0.47;0.47;;;;;;;11.54;86.93;99413.66;5128143;28;20062;-72
2022/10/15 01:57:26;;;;;;;1.95;1.85;;;;;;;11.53;87.00;99410.19;5127832;28;20024;-72
2022/10/15 01:59:53;;;;;;;1.00;1.00;;;;;;;11.56;86.98;99411.88;5127911;28;20034;-72
2022/10/15 02:02:18;;;;;;;0.50;0.50;;;;;;;11.52;87.09;99403.31;5108765;28;20027;-72
2022/10/15 02:04:44;;;;;;;1.60;1.50;;;;;;;11.60;86.93;99400.47;5126648;28;20024;-72
2022/10/15 02:07:18;;;;;;;0.50;0.50;;;;;;;11.60;87.15;99384.00;5126309;28;20020;-71
2022/10/15 02:09:48;;;;;;;1.38;1.27;;;;;;;11.57;86.88;99379.78;5126246;28;20027;-71
2022/10/15 02:12:29;;;;;;;0.85;0.85;;;;;;;11.66;86.71;99391.66;5126440;28;20095;-72
2022/10/15 02:15:15;;;;;;;0.75;0.75;;;;;;;11.57;86.91;99390.16;5127774;28;20031;-71
2022/10/15 02:18:04;;;;;;;0.70;0.70;;;;;;;11.59;86.73;99382.31;5127511;28;20455;-71
2022/10/15 02:21:02;;;;;;;0.50;0.50;;;;;;;11.59;86.87;99370.19;5143241;27;20043;-71
2022/10/15 02:23:35;;;;;;;1.35;1.35;;;;;;;11.58;86.52;99363.25;5127478;28;20034;-72
2022/10/15 02:26:05;;;;;;;0.40;0.40;;;;;;;11.57;86.81;99358.13;5126936;28;20027;-71
2022/10/15 02:28:34;;;;;;;1.58;1.52;;;;;;;11.54;87.03;99361.66;5127502;28;20022;-72
2022/10/15 02:31:01;;;;;;;2.08;1.98;;;;;;;11.53;87.24;99354.78;5127164;28;20082;-72
2022/10/15 02:33:29;;;;;;;0.43;0.43;;;;;;;11.52;86.99;99346.13;5127194;28;20019;-72
2022/10/15 02:35:57;;;;;;;0.60;0.60;;;;;;;11.61;87.14;99355.38;5127001;28;20027;-71
2022/10/15 02:38:25;;;;;;;1.10;1.10;;;;;;;11.67;87.09;99351.75;5127205;28;20048;-72
2022/10/15 02:40:52;;;;;;;0.80;0.80;;;;;;;11.64;87.21;99344.91;5126848;28;20070;-72
2022/10/15 02:43:20;;;;;;;0.98;0.98;;;;;;;11.71;86.79;99350.75;5127119;28;20029;-71
2022/10/15 02:45:46;;;;;;;1.25;1.23;;;;;;;11.72;86.68;99339.47;5126905;28;20043;-71
2022/10/15 02:48:11;;;;;;;1.27;1.25;;;;;;;11.69;87.11;99331.78;5126929;28;20072;-71
2022/10/15 02:50:37;;;;;;;0.90;0.90;;;;;;;11.75;86.70;99338.53;5126824;28;20098;-71
2022/10/15 02:53:03;;;;;;;0.40;0.40;;;;;;;11.76;86.84;99327.22;5126871;28;20493;-72
2022/10/15 02:55:28;;;;;;;3.70;3.42;;;;;;;11.78;87.06;99328.03;5126746;28;20024;-71
2022/10/15 02:57:53;;;;;;;5.20;1.65;;;;;;;11.75;87.10;99330.72;5126806;28;20155;-72
2022/10/15 03:00:19;;;;;;;3.10;2.90;;;;;;;11.76;87.20;99333.28;5126417;28;20463;-72
2022/10/15 03:02:44;;;;;;;1.60;1.50;;;;;;;11.75;86.92;99323.78;5126519;28;20028;-72
2022/10/15 03:05:10;;;;;;;1.40;1.30;;;;;;;11.80;86.96;99326.25;5126523;28;20023;-71
2022/10/15 03:07:35;;;;;;;2.10;2.00;;;;;;;11.83;87.17;99323.53;5126370;28;20023;-72
2022/10/15 03:10:01;;;;;;;0.50;0.50;;;;;;;11.84;87.02;99314.84;5126395;28;20011;-72
2022/10/15 03:12:26;;;;;;;2.97;1.70;;;;;;;11.88;86.91;99316.47;5126319;28;20034;-72
2022/10/15 03:14:52;;;;;;;1.40;1.33;;;;;;;11.91;86.85;99307.69;5126386;28;20024;-72
2022/10/15 03:17:17;;;;;;;3.60;3.00;;;;;;;11.92;86.86;99309.38;5126230;28;20489;-72
2022/10/15 03:19:42;;;;;;;1.05;1.05;;;;;;;11.95;86.73;99317.09;5126182;28;20019;-71
2022/10/15 03:22:08;;;;;;;0.60;0.60;;;;;;;12.01;86.28;99300.47;5125672;28;20054;-72
2022/10/15 03:24:33;;;;;;;0.50;0.50;;;;;;;11.96;86.45;99278.94;5142197;27;20046;-71
2022/10/15 03:26:58;;;;;;;0.40;0.40;;;;;;;11.98;86.82;99301.38;5125042;28;20055;-72
2022/10/15 03:29:24;;;;;;;0.50;0.50;;;;;;;11.99;86.44;99299.66;5125015;28;20027;-72
2022/10/15 03:31:49;;;;;;;0.40;0.40;;;;;;;11.94;86.68;99288.53;5125598;28;20105;-72
2022/10/15 03:34:15;;;;;;;0.40;0.40;;;;;;;11.96;86.52;99284.13;5126117;28;20055;-72
2022/10/15 03:36:40;;;;;;;0.40;0.40;;;;;;;11.97;86.24;99283.22;5126048;28;20019;-72
2022/10/15 03:39:07;;;;;;;0.75;0.75;;;;;;;11.95;86.52;99277.25;5125823;28;20087;-71
2022/10/15 03:41:33;;;;;;;0.63;0.63;;;;;;;11.96;86.70;99287.59;5107775;28;20079;-72
2022/10/15 03:44:02;;;;;;;0.40;0.40;;;;;;;11.88;86.86;99287.00;5126013;28;20039;-71
2022/10/15 03:46:27;;;;;;;0.52;0.52;;;;;;;11.85;86.60;99290.53;5125951;28;20050;-71
2022/10/15 03:48:52;;;;;;;1.25;1.25;;;;;;;11.71;87.11;99284.94;5125979;28;20047;-71
2022/10/15 03:51:18;;;;;;;0.93;0.93;;;;;;;11.65;87.58;99284.22;5126073;28;20020;-71
2022/10/15 03:53:43;;;;;;;1.55;1.45;;;;;;;11.61;87.89;99284.34;5125943;28;20031;-70
2022/10/15 03:56:09;;;;;;;2.88;2.67;;;;;;;11.57;88.22;99280.13;5125590;28;20069;-70
2022/10/15 03:58:34;;;;;;;2.15;2.05;;;;;;;11.51;88.58;99266.44;5126048;28;20055;-71
2022/10/15 04:00:59;;;;;;;0.40;0.40;;;;;;;11.38;89.30;99271.16;5125669;28;20023;-71
2022/10/15 04:03:25;;;;;;;0.50;0.50;;;;;;;11.36;89.37;99274.69;5125774;28;20031;-72
2022/10/15 04:05:51;;;;;;;2.72;1.85;;;;;;;11.38;89.38;99281.56;5125675;28;20054;-70
2022/10/15 04:08:16;;;;;;;1.05;1.05;;;;;;;11.36;89.56;99270.34;5124768;28;20083;-71
2022/10/15 04:10:42;;;;;;;0.50;0.50;;;;;;;11.33;89.63;99278.25;5124107;28;20024;-73
2022/10/15 04:13:07;;;;;;;2.53;2.42;;;;;;;11.32;90.13;99280.88;5124984;28;20034;-71
2022/10/15 04:15:33;;;;;;;0.40;0.40;;;;;;;11.32;90.00;99255.75;5125611;28;20027;-70
2022/10/15 04:17:59;;;;;;;0.40;0.40;;;;;;;11.29;90.11;99250.66;5125582;28;20019;-71
2022/10/15 04:20:24;;;;;;;0.50;0.50;;;;;;;11.32;90.29;99250.56;5125705;28;20023;-71
2022/10/15 04:22:49;;;;;;;0.80;0.80;;;;;;;11.31;90.25;99246.25;5125733;28;20038;-71
2022/10/15 04:25:16;;;;;;;1.25;1.25;;;;;;;11.30;90.41;99247.16;5107152;28;20069;-68
2022/10/15 04:27:41;;;;;;;1.00;1.00;;;;;;;11.28;90.65;99251.53;5125488;28;20463;-70
2022/10/15 04:30:07;;;;;;;1.58;1.50;;;;;;;11.28;91.01;99251.53;5125445;28;20016;-71
2022/10/15 04:32:33;;;;;;;0.73;0.73;;;;;;;11.25;91.05;99241.25;5125908;28;20027;-69
2022/10/15 04:34:58;;;;;;;0.40;0.40;;;;;;;11.23;91.05;99245.66;5129436;28;20024;-70
2022/10/15 04:37:23;;;;;;;0.68;0.65;;;;;;;11.25;91.07;99246.44;5111070;28;20027;-72
2022/10/15 04:39:49;;;;;;;0.40;0.40;;;;;;;11.25;91.20;99233.44;5129175;28;20069;-70
2022/10/15 04:42:14;;;;;;;0.50;0.50;;;;;;;11.23;91.88;99237.84;5129098;28;20035;-72
2022/10/15 04:44:39;;;;;;;0.40;0.40;;;;;;;11.21;91.94;99237.91;5129268;28;20019;-72
2022/10/15 04:47:05;;;;;;;0.50;0.50;;;;;;;11.21;92.09;99231.84;5110861;28;20020;-71
2022/10/15 04:49:30;;;;;;;0.40;0.40;;;;;;;11.30;92.08;99241.09;5129469;28;20104;-70
2022/10/15 04:51:55;;;;;;;1.77;1.67;;;;;;;11.33;92.36;99246.19;5129280;28;20022;-70
2022/10/15 04:54:21;;;;;;;0.40;0.40;;;;;;;11.29;93.24;99242.88;5129191;28;20486;-71
2022/10/15 04:56:46;;;;;;;0.40;0.40;;;;;;;11.27;93.62;99235.13;5128786;28;20039;-70
2022/10/15 04:59:12;;;;;;;0.82;0.82;;;;;;;11.29;93.95;99237.66;5128959;28;20034;-70
2022/10/15 05:01:37;;;;;;;0.40;0.40;;;;;;;11.24;94.26;99237.81;5129114;28;20031;-70
2022/10/15 05:04:02;;;;;;;0.60;0.60;;;;;;;11.25;94.28;99225.66;5128960;28;20098;-70
2022/10/15 05:06:28;;;;;;;0.40;0.40;;;;;;;11.27;94.64;99236.84;5128816;28;20028;-69
2022/10/15 05:08:53;;;;;;;0.40;0.40;;;;;;;11.22;95.23;99234.41;5128955;28;20031;-69
2022/10/15 05:11:24;;;;;;;0.65;0.65;;;;;;;11.15;95.74;99238.06;5128498;28;20277;-69
2022/10/15 05:13:50;;;;;;;0.50;0.50;;;;;;;11.15;96.03;99238.91;5128887;28;20019;-70
2022/10/15 05:16:17;;;;;;;0.57;0.57;;;;;;;11.19;96.13;99234.50;5128468;28;20016;-69
2022/10/15 05:18:45;;;;;;;0.32;0.32;;;;;;;11.21;96.30;99234.44;5128697;28;20491;-70
2022/10/15 05:21:10;;;;;;;0.77;0.77;;;;;;;11.23;96.99;99230.91;5128612;28;20055;-70
2022/10/15 05:23:37;;;;;;;2.13;1.67;;;;;;;11.28;97.41;99230.75;5128809;28;20023;-70
2022/10/15 05:26:04;;;;;;;3.80;1.85;;;;;;;11.36;97.92;99230.50;5109778;28;20107;-68
2022/10/15 05:28:30;;;;;;;2.15;1.05;;;;;;;11.43;98.48;99232.03;5128397;28;20051;-70
2022/10/15 05:31:01;;;;;;;0.40;0.40;;;;;;;11.48;98.75;99237.09;5128618;28;20024;-70
2022/10/15 05:33:27;;;;;;;1.58;1.48;;;;;;;11.53;99.06;99236.03;5128347;28;20054;-70
2022/10/15 05:35:52;;;;;;;0.60;0.60;;;;;;;11.52;99.39;99233.50;5128291;28;20027;-70
2022/10/15 05:38:17;;;;;;;0.40;0.40;;;;;;;11.57;99.61;99236.81;5128090;28;20047;-70
2022/10/15 05:40:47;;;;;;;1.27;1.23;;;;;;;11.59;100.00;99241.97;5127845;28;20048;-69
2022/10/15 05:43:13;;;;;;;0.40;0.40;;;;;;;11.59;100.00;99231.56;5128356;28;20054;-71
2022/10/15 05:45:38;;;;;;;1.00;1.00;;;;;;;11.62;100.00;99224.53;5127295;28;20028;-70
2022/10/15 05:48:04;;;;;;;0.55;0.55;;;;;;;11.64;100.00;99235.72;5128149;28;20026;-70
2022/10/15 05:50:29;;;;;;;1.15;1.15;;;;;;;11.67;100.00;99252.09;5128174;28;20027;-70
2022/10/15 05:52:54;;;;;;;1.35;1.35;;;;;;;11.68;100.00;99235.63;5127910;28;20030;-70
2022/10/15 05:55:20;;;;;;;1.20;1.20;;;;;;;11.69;100.00;99242.53;5127653;28;20464;-70
2022/10/15 05:57:45;;;;;;;1.20;1.20;;;;;;;11.63;100.00;99228.81;5109215;28;20038;-71
2022/10/15 06:00:11;;;;;;;1.20;1.20;;;;;;;11.70;100.00;99245.06;5127550;28;20016;-70
2022/10/15 06:02:36;;;;;;;0.52;0.52;;;;;;;11.70;100.00;99244.22;5127925;28;20079;-72
2022/10/15 06:05:02;;;;;;;2.65;2.00;;;;;;;11.73;100.00;99234.56;5127707;28;20110;-71
2022/10/15 06:07:27;;;;;;;1.17;1.15;;;;;;;11.76;100.00;99238.81;5127669;28;20043;-72
2022/10/15 06:09:53;;;;;;;1.15;1.15;;;;;;;11.75;100.00;99242.31;5127564;28;20041;-70
2022/10/15 06:12:18;;;;;;;0.30;0.30;;;;;;;11.75;100.00;99237.97;5127502;28;20023;-71
2022/10/15 06:14:43;;;;;;;0.95;0.95;;;;;;;11.77;100.00;99250.94;5127672;28;20033;-70
2022/10/15 06:17:09;;;;;;;1.67;1.58;;;;;;;11.77;100.00;99253.53;5127352;28;20016;-71
2022/10/15 06:19:34;;;;;;;0.50;0.50;;;;;;;11.72;100.00;99258.88;5127495;28;20043;-70
2022/10/15 06:22:00;;;;;;;0.60;0.60;;;;;;;11.76;100.00;99257.88;5127482;28;20059;-72
2022/10/15 06:24:25;;;;;;;0.40;0.40;;;;;;;11.78;100.00;99263.03;5127348;28;20036;-70
2022/10/15 06:26:50;;;;;;;0.40;0.40;;;;;;;11.73;100.00;99262.31;5127041;28;20066;-71
2022/10/15 06:29:16;;;;;;;0.45;0.45;;;;;;;11.72;100.00;99258.88;5127302;28;20023;-71
2022/10/15 06:31:41;;;;;;;2.03;1.92;;;;;;;11.72;100.00;99263.22;5127235;28;20019;-72
2022/10/15 06:34:06;;;;;;;0.60;0.60;;;;;;;11.71;100.00;99262.34;5127101;28;20024;-72
2022/10/15 06:36:32;;;;;;;1.40;1.30;;;;;;;11.74;100.00;99270.06;5126890;28;20106;-72
2022/10/15 06:38:57;;;;;;;0.40;0.40;;;;;;;11.73;100.00;99265.78;5126825;28;20542;-71
2022/10/15 06:41:22;;;;;;;0.52;0.52;;;;;;;11.73;100.00;99264.91;5126558;28;20120;-71
2022/10/15 06:43:49;;;;;;;0.43;0.43;;;;;;;11.68;100.00;99261.63;5127297;28;20420;-71
2022/10/15 06:46:17;;;;;;;0.55;0.55;;;;;;;11.65;100.00;99266.00;5108592;28;20374;-70
2022/10/15 06:48:42;;;;;;;0.40;0.40;;;;;;;11.72;100.00;99269.28;5126895;28;20059;-72
2022/10/15 06:51:16;;;;;;;0.50;0.50;;;;;;;11.75;100.00;99270.91;5126698;28;20051;-72
2022/10/15 06:53:42;;;;;;;2.53;2.38;;;;;;;11.75;100.00;99281.31;5126907;28;20024;-73
2022/10/15 06:56:08;;;;;;;0.40;0.40;;;;;;;11.77;100.00;99284.72;5125600;28;20031;-72
2022/10/15 06:58:36;;;;;;;0.40;0.40;;;;;;;11.80;100.00;99292.44;5126632;28;20387;-74
2022/10/15 07:01:04;;;;;;;2.15;2.05;;;;;;;11.82;100.00;99292.38;5126692;28;20016;-72
2022/10/15 07:03:29;;;;;;;0.73;0.73;;;;;;;11.84;100.00;99291.44;5126685;28;20024;-72
2022/10/15 07:05:55;;;;;;;0.63;0.63;;;;;;;11.84;100.00;99293.16;5126581;28;20028;-72
2022/10/15 07:08:20;;;;;;;0.30;0.30;;;;;;;11.87;100.00;99299.13;5126404;28;20031;-72
2022/10/15 07:10:45;;;;;;;1.00;1.00;;;;;;;11.85;100.00;99300.09;5126210;28;20019;-72
2022/10/15 07:13:11;;;;;;;1.88;1.77;;;;;;;11.89;100.00;99302.53;5108377;28;20012;-72
2022/10/15 07:15:36;;;;;;;0.73;0.73;;;;;;;11.91;100.00;99305.09;5126653;28;20479;-70
2022/10/15 07:18:02;;;;;;;0.40;0.40;;;;;;;11.97;100.00;99298.84;5126413;28;20049;-73
2022/10/15 07:20:29;;;;;;;1.00;1.00;;;;;;;12.06;100.00;99300.31;5126312;28;20019;-70
2022/10/15 07:22:59;;;;;;;0.40;0.40;;;;;;;12.11;100.00;99306.22;5126349;28;20023;-70
2022/10/15 07:25:25;;;;;;;0.30;0.30;;;;;;;12.13;100.00;99305.28;5126243;28;20094;-69
2022/10/15 07:27:51;;;;;;;0.30;0.30;;;;;;;12.17;100.00;99307.78;5124743;28;20019;-71
2022/10/15 07:30:16;;;;;;;0.70;0.70;;;;;;;12.09;100.00;99298.47;5125130;28;20020;-71
2022/10/15 07:32:42;;;;;;;0.50;0.50;;;;;;;12.07;100.00;99313.25;5126115;28;20019;-72
2022/10/15 07:35:08;;;;;;;0.63;0.63;;;;;;;11.99;100.00;99304.84;5126288;28;20023;-71
2022/10/15 07:37:33;;;;;;;0.30;0.30;;;;;;;12.11;100.00;99316.63;5107466;28;20019;-71
2022/10/15 07:39:59;;;;;;;0.85;0.85;;;;;;;12.12;100.00;99308.78;5125864;28;20054;-71
2022/10/15 07:42:24;;;;;;;0.50;0.50;;;;;;;12.20;100.00;99318.09;5126151;28;20047;-71
2022/10/15 07:44:50;;;;;;;0.45;0.45;;;;;;;12.24;100.00;99319.69;5126074;28;20043;-72
2022/10/15 07:47:15;;;;;;;0.40;0.40;;;;;;;12.27;100.00;99325.66;5107447;28;20030;-73
2022/10/15 07:49:40;;;;;;;0.68;0.68;;;;;;;12.31;100.00;99329.00;5126028;28;20039;-71
2022/10/15 07:52:07;;;;;;;1.15;1.15;;;;;;;12.27;100.00;99323.03;5126044;28;20039;-72
2022/10/15 07:54:33;;;;;;;0.40;0.40;;;;;;;12.30;99.79;99329.88;5125926;28;20032;-71
2022/10/15 07:56:58;;;;;;;1.52;1.42;;;;;;;12.39;99.71;99331.34;5125562;28;20103;-71
2022/10/15 07:59:24;;;;;;;0.30;0.30;;;;;;;12.38;99.65;99329.66;5125885;28;20053;-73
2022/10/15 08:01:50;;;;;;;1.42;1.42;;;;;;;12.37;99.75;99336.59;5125916;28;20024;-71
2022/10/15 08:04:15;;;;;;;0.30;0.30;;;;;;;12.39;99.96;99340.03;5125893;28;20047;-70
2022/10/15 08:06:41;;;;;;;0.40;0.40;;;;;;;12.43;100.00;99343.34;5125652;28;20027;-70
2022/10/15 08:09:06;;;;;;;0.40;0.40;;;;;;;12.50;100.00;99338.78;5128992;28;20024;-71
2022/10/15 08:11:32;;;;;;;0.30;0.30;;;;;;;12.62;100.00;99338.38;5129825;28;20046;-71
2022/10/15 08:13:57;;;;;;;0.75;0.75;;;;;;;12.79;100.00;99336.94;5130085;28;20030;-70
2022/10/15 08:16:22;;;;;;;0.30;0.30;;;;;;;13.06;100.00;99346.44;5111156;28;20412;-69
2022/10/15 08:18:48;;;;;;;0.30;0.30;;;;;;;13.25;100.00;99342.28;5129901;28;20038;-69
2022/10/15 08:21:13;;;;;;;1.50;1.50;;;;;;;13.37;100.00;99345.34;5130139;28;20456;-68
2022/10/15 08:23:39;;;;;;;0.30;0.30;;;;;;;13.46;100.00;99352.81;5129685;28;20083;-70
2022/10/15 08:26:04;;;;;;;1.15;1.15;;;;;;;13.67;100.00;99345.13;5129356;28;20049;-70
2022/10/15 08:28:31;;;;;;;0.30;0.30;;;;;;;13.88;99.15;99350.41;5129642;28;20104;-70
2022/10/15 08:30:58;;;;;;;0.47;0.47;;;;;;;13.80;98.30;99340.25;5129662;28;20047;-71
2022/10/15 08:33:23;;;;;;;5.10;1.42;;;;;;;13.79;96.88;99351.59;5129455;28;20083;-70
2022/10/15 08:35:49;;;;;;;0.40;0.40;;;;;;;13.69;95.96;99355.47;5129501;28;20016;-69
2022/10/15 08:38:14;;;;;;;0.30;0.30;;;;;;;13.55;95.76;99362.06;5129377;28;20076;-70
2022/10/15 08:40:45;;;;;;;0.40;0.40;;;;;;;13.48;94.99;99364.00;5128963;28;20060;-67
2022/10/15 08:43:35;;;;;;;0.73;0.73;;;;;;;13.46;94.39;99367.59;5129702;28;20030;-70
2022/10/15 08:46:05;;;;;;;0.30;0.30;;;;;;;13.67;95.34;99365.13;5117538;28;20032;-70
2022/10/15 08:48:41;;;;;;;0.68;0.68;;;;;;;13.59;93.54;99362.81;5129195;28;20057;-70
2022/10/15 08:51:15;;;;;;;0.40;0.40;;;;;;;13.68;93.73;99370.28;5129206;28;20041;-70
2022/10/15 08:53:51;;;;;;;1.15;1.15;;;;;;;14.28;95.50;99378.44;5129316;28;20024;-71
2022/10/15 08:56:21;;;;;;;0.30;0.30;;;;;;;15.33;95.21;99365.31;5129020;28;20053;-70
2022/10/15 08:59:33;;;;;;;0.30;0.30;;;;;;;16.43;92.17;99383.81;5129219;28;20032;-70
2022/10/15 09:02:45;;;;;;;0.30;0.30;;;;;;;17.07;90.31;99389.34;5083597;28;20036;-70
2022/10/15 09:08:59;;;;;;;0.20;0.20;;;;;;;18.55;85.21;99383.13;5045651;28;20029;-75
2022/10/15 09:12:07;;;;;;;0.20;0.20;;;;;;;19.72;85.62;99377.09;5048342;28;20034;-72
2022/10/15 09:14:39;;;;;;;0.20;0.20;;;;;;;20.77;82.44;99369.41;5046151;28;20028;-74
2022/10/15 09:17:13;;;;;;;;;;;;;;;20.92;78.11;99377.28;5045877;28;20105;-73
2022/10/15 09:19:41;;;;;;;0.20;0.20;;;;;;;20.23;75.66;99380.91;5044506;28;19920;-70
2022/10/15 09:22:18;;;;;;;0.20;0.20;;;;;;;19.87;74.49;99386.63;5045374;28;20048;-70
2022/10/15 09:24:59;;;;;;;0.20;0.20;;;;;;;20.06;72.78;99381.06;5045306;28;20064;-71
2022/10/15 09:27:35;;;;;;;0.82;0.82;;;;;;;20.73;73.98;99362.69;5028343;28;20045;-70
2022/10/15 09:30:05;;;;;;;0.20;0.20;;;;;;;21.28;72.01;99377.44;5045497;28;20056;-72
2022/10/15 09:32:31;;;;;;;0.20;0.20;;;;;;;21.68;68.23;99381.69;5045413;28;20052;-72
2022/10/15 09:35:30;;;;;;;0.20;0.20;;;;;;;21.81;66.15;99392.25;5045301;28;20017;-73
2022/10/15 09:38:14;;;;;;;0.50;0.50;;;;;;;21.54;69.26;99394.13;5078855;28;20450;-72
2022/10/15 09:41:03;;;;;;;0.20;0.20;;;;;;;20.47;64.40;99404.81;5126894;28;20048;-73
2022/10/15 09:43:43;;;;;;;0.50;0.50;;;;;;;19.16;67.92;99376.97;5144125;27;20086;-73
2022/10/15 09:46:18;;;;;;;0.20;0.20;;;;;;;18.29;69.91;99377.59;5109369;28;20126;-71
2022/10/15 09:49:33;;;;;;;0.50;0.50;;;;;;;17.71;70.84;99388.66;5109715;28;20035;-73
2022/10/15 09:52:58;;;;;;;0.30;0.30;;;;;;;16.77;69.70;99371.66;5028576;28;20047;-68
2022/10/15 09:55:51;;;;;;;0.40;0.40;;;;;;;16.43;72.13;99403.00;5035075;28;20106;-74
2022/10/15 09:58:38;;;;;;;0.30;0.30;;;;;;;15.89;73.02;99389.84;5028431;28;20021;-73
2022/10/15 10:01:53;;;;;;;0.30;0.30;;;;;;;15.58;72.79;99407.81;5045039;28;20033;-73
2022/10/15 10:04:37;;;;;;;0.30;0.30;;;;;;;15.38;73.78;99353.78;5044978;28;20061;-74
2022/10/15 10:07:24;;;;;;;0.30;0.30;;;;;;;15.58;73.44;99376.41;5044483;28;20033;-75
2022/10/15 10:09:56;;;;;;;0.32;0.32;;;;;;;15.55;73.99;99394.88;5027569;28;20029;-75
2022/10/15 10:12:36;;;;;;;0.40;0.40;;;;;;;15.44;76.33;99364.81;5027895;28;20141;-73
2022/10/15 10:15:53;;;;;;;0.30;0.30;;;;;;;17.36;72.47;99404.50;5044604;28;20033;-75
2022/10/15 10:18:24;;;;;;;0.30;0.30;;;;;;;17.53;69.63;99390.50;5022290;28;20513;-73
2022/10/15 10:21:01;;;;;;;0.40;0.40;;;;;;;17.38;72.29;99415.75;5044550;28;20482;-73
2022/10/15 10:23:38;;;;;;;0.28;0.28;;;;;;;16.93;69.72;99415.44;5100344;28;20039;-74
2022/10/15 10:26:13;;;;;;;0.30;0.30;;;;;;;17.58;71.24;99411.22;5142779;27;20024;-74
2022/10/15 10:28:52;;;;;;;0.20;0.20;;;;;;;19.19;65.98;99404.88;5143022;27;20027;-74
2022/10/15 10:31:41;;;;;;;0.30;0.30;;;;;;;19.65;61.28;99360.84;5108685;28;20012;-73
2022/10/15 10:34:15;;;;;;;0.30;0.30;;;;;;;20.07;59.50;99413.53;5109357;28;20027;-73
2022/10/15 10:37:13;;;;;;;0.20;0.20;;;;;;;19.89;58.65;99395.28;5109060;28;20026;-74
2022/10/15 10:39:43;;;;;;;0.20;0.20;;;;;;;19.08;61.72;99363.41;5127374;28;20157;-75
2022/10/15 10:42:15;;;;;;;0.32;0.32;;;;;;;19.98;59.50;99409.69;5143020;27;20100;-76
2022/10/15 10:44:45;;;;;;;0.30;0.30;;;;;;;20.30;62.73;99388.31;5108935;28;20123;-75
2022/10/15 10:47:38;;;;;;;0.20;0.20;;;;;;;20.85;62.97;99375.94;5108432;28;20032;-74
2022/10/15 10:50:27;;;;;;;0.20;0.20;;;;;;;22.04;59.90;99417.00;5108547;28;20071;-75
2022/10/15 10:53:13;;;;;;;0.20;0.20;;;;;;;22.44;56.55;99393.03;5126799;28;20023;-74
2022/10/15 10:55:48;;;;;;;0.20;0.20;;;;;;;22.71;58.54;99402.53;5108106;28;20039;-73
2022/10/15 10:58:22;;;;;;;0.40;0.40;;;;;;;23.17;55.80;99421.97;5142701;27;20019;-75
2022/10/15 11:01:08;;;;;;;0.20;0.20;;;;;;;24.04;56.15;99421.47;5108606;28;20023;-75
2022/10/15 11:07:20;;;;;;;0.20;0.20;;;;;;;25.35;49.96;99431.94;5112721;28;20024;-77
2022/10/15 11:09:49;;;;;;;0.20;0.20;;;;;;;25.87;49.41;99420.38;5108353;28;20053;-75
2022/10/15 11:12:51;;;;;;;0.10;0.10;;;;;;;25.54;50.04;99423.19;5108162;28;20102;-76
2022/10/15 11:16:02;;;;;;;0.30;0.30;;;;;;;24.12;49.55;99425.16;5126624;28;20020;-76
2022/10/15 11:18:33;;;;;;;0.20;0.20;;;;;;;22.62;55.87;99431.34;5108185;28;20027;-74
2022/10/15 11:21:36;;;;;;;0.20;0.20;;;;;;;21.14;52.43;99433.84;5126587;28;20103;-74
2022/10/15 11:24:44;;;;;;;0.20;0.20;;;;;;;20.24;57.53;99432.69;5126246;28;20061;-74
2022/10/15 11:27:54;;;;;;;0.57;0.50;;;;;;;19.10;58.64;99366.81;5106612;28;20087;-75
2022/10/15 11:31:07;;;;;;;0.20;0.20;;;;;;;18.96;63.91;99430.75;5124962;28;20068;-76
2022/10/15 11:34:04;;;;;;;0.20;0.20;;;;;;;18.45;66.04;99440.63;5107892;28;20016;-75
2022/10/15 11:37:16;;;;;;;0.20;0.20;;;;;;;17.71;62.05;99432.41;5107758;28;20076;-76
2022/10/15 11:40:18;;;;;;;0.30;0.30;;;;;;;17.18;64.96;99437.78;5100851;28;20078;-75
2022/10/15 11:43:24;;;;;;;0.30;0.30;;;;;;;16.69;64.76;99442.78;5082794;28;20062;-75
2022/10/15 11:46:43;;;;;;;2.25;1.95;;;;;;;16.28;66.23;99414.25;5084155;28;20024;-76
2022/10/15 11:49:37;;;;;;;0.22;0.22;;;;;;;16.30;68.83;99447.28;5050201;28;20058;-75
2022/10/15 11:52:14;;;;;;;0.30;0.30;;;;;;;16.00;65.46;99449.56;5117757;28;20032;-76
2022/10/15 11:55:01;;;;;;;0.28;0.28;;;;;;;15.78;66.42;99446.16;5117773;28;20039;-74
2022/10/15 11:57:32;;;;;;;0.30;0.30;;;;;;;15.43;65.76;99436.34;5117466;28;20099;-70
2022/10/15 12:00:18;;;;;;;0.30;0.30;;;;;;;14.91;66.17;99389.78;5117977;28;20052;-71
2022/10/15 12:02:47;;;;;;;0.30;0.30;;;;;;;14.93;67.17;99408.88;5085139;28;20031;-72